Time;durP1;ratioP1;P1;durP2;ratioP2;P2;SDS_P1;SDS_P2;PMS_P1;PMS_P2;Temp;Humidity;BMP_temperature;BMP_pressure;BME280_temperature;BME280_humidity;BME280_pressure;Samples;Min_cycle;Max_cycle;Signal;HPM_P1;HPM_P2
2021/09/27 00:03:21;;;;;;;21.02;18.38;;;;;;;17.43;98.08;101518.13;10140656;28;20109;-71
2021/09/27 00:08:19;;;;;;;21.10;18.80;;;;;;;17.42;98.55;101516.50;10143940;28;20149;-72
2021/09/27 00:13:16;;;;;;;20.70;17.85;;;;;;;17.40;98.28;101513.25;10146470;28;20133;-71
2021/09/27 00:18:14;;;;;;;23.75;18.23;;;;;;;17.42;98.66;101516.50;10141067;28;20508;-71
2021/09/27 00:23:11;;;;;;;22.10;19.48;;;;;;;17.39;99.01;101505.34;10141126;28;20074;-71
2021/09/27 00:28:09;;;;;;;23.15;18.92;;;;;;;17.40;98.77;101502.19;10140063;28;20080;-70
2021/09/27 00:33:06;;;;;;;24.13;18.80;;;;;;;17.36;98.85;101498.53;10143154;28;20242;-71
2021/09/27 00:38:03;;;;;;;23.55;20.55;;;;;;;17.34;99.02;101492.53;10145240;28;20100;-70
2021/09/27 00:43:01;;;;;;;24.88;21.77;;;;;;;17.29;100.00;101495.53;10149768;28;20061;-72
2021/09/27 00:47:58;;;;;;;21.80;19.52;;;;;;;17.29;100.00;101484.50;10139831;28;20074;-72
2021/09/27 00:52:55;;;;;;;21.02;18.85;;;;;;;17.28;100.00;101482.06;10151826;28;20034;-72
2021/09/27 00:57:54;;;;;;;20.30;18.20;;;;;;;17.31;100.00;101482.16;10155354;28;20096;-72
2021/09/27 01:08:23;;;;;;;22.15;19.40;;;;;;;17.31;100.00;101471.09;10637558;22;20042;-72
2021/09/27 01:13:41;;;;;;;23.35;20.85;;;;;;;17.31;100.00;101465.56;10185215;28;20486;-72
2021/09/27 01:19:28;;;;;;;24.27;21.42;;;;;;;17.30;100.00;101461.22;10174077;28;20045;-73
2021/09/27 01:24:28;;;;;;;22.65;20.20;;;;;;;17.31;100.00;101460.06;10129338;28;20077;-68
2021/09/27 01:29:40;;;;;;;23.80;21.20;;;;;;;17.30;100.00;101452.91;10164079;28;20051;-69
2021/09/27 01:34:57;;;;;;;22.88;20.48;;;;;;;17.33;100.00;101459.72;10179306;28;20491;-73
2021/09/27 01:40:38;;;;;;;24.88;21.15;;;;;;;17.33;100.00;101468.81;10161905;28;20504;-74
2021/09/27 01:45:45;;;;;;;25.35;22.67;;;;;;;17.34;100.00;101470.44;10145010;28;20077;-73
2021/09/27 01:51:03;;;;;;;23.20;20.63;;;;;;;17.39;100.00;101470.19;10171331;28;20053;-71
2021/09/27 01:56:12;;;;;;;23.85;21.25;;;;;;;17.38;100.00;101471.38;10173440;28;20569;-71
2021/09/27 02:01:26;;;;;;;22.75;20.17;;;;;;;17.37;100.00;101464.22;10152534;28;20125;-72
2021/09/27 02:06:32;;;;;;;22.92;19.30;;;;;;;17.36;100.00;101461.78;10168284;28;20055;-71
2021/09/27 02:11:32;;;;;;;23.15;20.40;;;;;;;17.36;100.00;101470.91;10163348;28;20496;-72
2021/09/27 02:16:40;;;;;;;26.92;24.02;;;;;;;17.40;100.00;101473.75;10162897;28;20646;-71
2021/09/27 02:21:41;;;;;;;24.20;21.55;;;;;;;17.40;100.00;101474.56;10168080;28;20125;-71
2021/09/27 02:26:38;;;;;;;24.20;21.27;;;;;;;17.36;100.00;101479.19;10161208;28;20073;-73
2021/09/27 02:31:46;;;;;;;36.05;28.38;;;;;;;17.35;100.00;101476.75;10167385;28;20042;-73
2021/09/27 02:36:53;;;;;;;31.17;27.35;;;;;;;17.34;100.00;101475.97;10163288;28;20068;-72
2021/09/27 02:42:11;;;;;;;35.80;29.75;;;;;;;17.32;100.00;101483.78;10161433;28;20054;-70
2021/09/27 02:47:11;;;;;;;34.35;27.38;;;;;;;17.33;100.00;101474.34;10150684;28;20475;-72
2021/09/27 02:52:09;;;;;;;33.88;27.40;;;;;;;17.34;100.00;101464.09;10160367;28;20038;-72
2021/09/27 02:57:34;;;;;;;30.88;25.90;;;;;;;17.35;100.00;101454.66;10170883;28;20317;-72
2021/09/27 03:02:36;;;;;;;32.53;26.67;;;;;;;17.35;100.00;101466.50;10152344;28;20120;-72
2021/09/27 03:07:57;;;;;;;30.65;25.92;;;;;;;17.35;100.00;101465.72;10168247;28;20096;-71
2021/09/27 03:13:12;;;;;;;26.27;23.48;;;;;;;17.31;100.00;101479.41;10154216;28;20567;-71
2021/09/27 03:18:53;;;;;;;33.17;28.98;;;;;;;17.29;100.00;101487.25;10155635;28;20077;-71
2021/09/27 03:24:29;;;;;;;43.28;33.13;;;;;;;17.26;100.00;101501.75;10091988;28;20554;-72
2021/09/27 03:30:00;;;;;;;39.42;32.28;;;;;;;17.24;100.00;101498.50;10150365;28;20078;-70
2021/09/27 03:35:16;;;;;;;40.00;32.03;;;;;;;17.19;100.00;101501.50;10158412;28;20054;-70
2021/09/27 03:40:26;;;;;;;36.00;29.85;;;;;;;17.19;100.00;101501.50;10162638;28;20138;-69
2021/09/27 03:45:35;;;;;;;35.10;29.92;;;;;;;17.16;100.00;101493.91;10154574;28;20050;-70
2021/09/27 03:50:43;;;;;;;35.92;29.92;;;;;;;17.18;100.00;101499.91;10160330;28;20070;-69
2021/09/27 03:55:55;;;;;;;39.92;31.73;;;;;;;17.17;100.00;101481.69;10160433;28;20086;-71
2021/09/27 04:00:57;;;;;;;40.53;31.17;;;;;;;17.18;100.00;101472.28;10144916;28;20070;-71
2021/09/27 04:06:20;;;;;;;33.67;28.25;;;;;;;17.18;100.00;101477.81;10145941;28;20042;-71
2021/09/27 04:11:31;;;;;;;28.00;25.02;;;;;;;17.19;100.00;101484.94;10148803;28;20046;-71
2021/09/27 04:17:15;;;;;;;29.40;25.83;;;;;;;17.20;100.00;101481.03;10145862;28;20108;-70
2021/09/27 04:22:34;;;;;;;26.40;23.48;;;;;;;17.22;100.00;101478.72;10108476;28;20043;-71
2021/09/27 04:27:33;;;;;;;26.38;23.58;;;;;;;17.24;100.00;101476.41;10161875;28;20104;-70
2021/09/27 04:32:48;;;;;;;27.58;23.30;;;;;;;17.27;100.00;101472.13;10169381;28;20042;-70
2021/09/27 04:37:46;;;;;;;28.30;23.75;;;;;;;17.24;100.00;101470.88;10179523;28;20472;-70
2021/09/27 04:43:06;;;;;;;26.50;21.70;;;;;;;17.27;100.00;101461.09;10162932;28;20459;-70
2021/09/27 04:48:23;;;;;;;30.95;26.13;;;;;;;17.27;100.00;101448.09;10162270;28;20042;-70
2021/09/27 04:53:41;;;;;;;28.75;25.70;;;;;;;17.27;100.00;101453.63;10162649;28;20088;-70
2021/09/27 04:59:04;;;;;;;30.52;25.42;;;;;;;17.24;100.00;101451.53;10158205;28;20116;-69
2021/09/27 05:04:19;;;;;;;31.25;25.95;;;;;;;17.22;100.00;101451.09;10155265;28;20579;-70
2021/09/27 05:09:51;;;;;;;31.33;25.92;;;;;;;17.25;100.00;101453.16;10155278;28;20069;-68
2021/09/27 05:14:54;;;;;;;31.33;27.25;;;;;;;17.23;100.00;101447.16;10164565;28;20064;-69
2021/09/27 05:19:53;;;;;;;31.23;26.80;;;;;;;17.22;100.00;101448.34;10174430;28;20072;-69
2021/09/27 05:25:15;;;;;;;33.28;26.70;;;;;;;17.17;100.00;101454.06;10164001;28;20042;-69
2021/09/27 05:30:29;;;;;;;34.53;25.00;;;;;;;17.17;100.00;101443.00;10153451;28;20076;-69
2021/09/27 05:35:51;;;;;;;30.52;24.38;;;;;;;17.17;100.00;101448.53;10175797;28;20042;-69
2021/09/27 05:41:04;;;;;;;32.38;24.98;;;;;;;17.18;100.00;101447.41;10164853;28;20049;-69
2021/09/27 05:46:29;;;;;;;27.90;23.80;;;;;;;17.19;100.00;101435.97;10165180;28;20121;-70
2021/09/27 05:51:31;;;;;;;30.30;24.23;;;;;;;17.22;100.00;101429.78;10144943;28;20137;-69
2021/09/27 05:56:36;;;;;;;32.13;24.77;;;;;;;17.24;100.00;101432.19;10181976;28;20074;-69
2021/09/27 06:01:53;;;;;;;30.88;26.20;;;;;;;17.25;100.00;101434.63;10159795;28;20081;-69
2021/09/27 06:07:01;;;;;;;33.60;27.17;;;;;;;17.27;100.00;101426.00;10164476;28;20046;-69
2021/09/27 06:12:05;;;;;;;36.80;27.73;;;;;;;17.27;100.00;101426.00;10159737;28;20070;-69
2021/09/27 06:17:23;;;;;;;29.65;26.38;;;;;;;17.27;100.00;101441.75;10163580;28;20050;-69
2021/09/27 06:22:37;;;;;;;30.00;26.35;;;;;;;17.27;100.00;101448.09;10159600;28;20502;-69
2021/09/27 06:27:50;;;;;;;29.42;26.00;;;;;;;17.26;100.00;101438.19;10133057;28;20104;-71
2021/09/27 06:33:11;;;;;;;33.75;26.33;;;;;;;17.28;100.00;101438.63;10153654;28;20096;-73
2021/09/27 06:38:10;;;;;;;29.95;26.20;;;;;;;17.29;100.00;101440.28;10155746;28;20065;-73
2021/09/27 06:43:15;;;;;;;33.40;28.58;;;;;;;17.28;100.00;101433.13;10164187;28;20066;-71
2021/09/27 06:48:13;;;;;;;34.97;28.50;;;;;;;17.28;100.00;101419.28;10152605;28;20085;-72
2021/09/27 06:53:09;;;;;;;37.67;32.38;;;;;;;17.27;100.00;101417.69;10157204;28;20396;-73
2021/09/27 06:58:06;;;;;;;36.83;30.90;;;;;;;17.30;100.00;101419.75;10163501;28;20145;-72
2021/09/27 07:03:03;;;;;;;36.70;30.95;;;;;;;17.30;100.00;101418.97;10165765;28;20515;-72
2021/09/27 07:08:01;;;;;;;44.13;30.92;;;;;;;17.28;100.00;101424.81;10158567;28;20085;-73
2021/09/27 07:12:57;;;;;;;37.97;31.25;;;;;;;17.31;100.00;101421.34;10166298;28;20100;-73
2021/09/27 07:17:54;;;;;;;35.70;29.90;;;;;;;17.34;100.00;101437.28;10166094;28;20108;-73
2021/09/27 07:22:50;;;;;;;39.50;30.95;;;;;;;17.36;100.00;101428.59;10160690;28;20058;-73
2021/09/27 07:27:48;;;;;;;36.92;30.50;;;;;;;17.34;100.00;101430.94;10151245;28;20077;-72
2021/09/27 07:32:46;;;;;;;34.65;28.63;;;;;;;17.35;100.00;101438.88;10164291;28;20065;-73
2021/09/27 07:37:42;;;;;;;35.33;27.08;;;;;;;17.35;100.00;101433.34;10171210;28;20109;-73
2021/09/27 07:42:40;;;;;;;43.58;29.63;;;;;;;17.38;100.00;101424.38;10151686;28;20185;-72
2021/09/27 07:47:44;;;;;;;40.47;29.65;;;;;;;17.42;100.00;101427.22;10151884;28;20042;-74
2021/09/27 07:52:50;;;;;;;39.72;30.30;;;;;;;17.44;100.00;101430.47;10151895;28;20055;-73
2021/09/27 07:57:50;;;;;;;38.92;32.65;;;;;;;17.50;100.00;101425.47;10158168;28;20438;-73
2021/09/27 08:02:51;;;;;;;36.50;30.08;;;;;;;17.53;100.00;101427.56;10160816;28;20112;-72
2021/09/27 08:07:54;;;;;;;36.78;30.20;;;;;;;17.56;100.00;101443.47;10155050;28;20076;-73
2021/09/27 08:12:53;;;;;;;40.10;31.00;;;;;;;17.59;100.00;101445.50;10166246;28;20240;-73
2021/09/27 08:17:53;;;;;;;35.55;29.50;;;;;;;17.60;100.00;101441.63;10156957;28;20039;-73
2021/09/27 08:22:58;;;;;;;36.55;28.65;;;;;;;17.62;100.00;101439.31;10157020;28;20046;-73
2021/09/27 08:28:01;;;;;;;35.55;29.10;;;;;;;17.62;100.00;101436.53;10149617;28;20053;-73
2021/09/27 08:33:03;;;;;;;37.90;30.37;;;;;;;17.63;100.00;101438.16;10149347;28;20042;-73
2021/09/27 08:38:03;;;;;;;36.43;29.27;;;;;;;17.58;100.00;101446.69;10160073;28;20070;-73
2021/09/27 08:43:30;;;;;;;32.33;28.38;;;;;;;17.54;100.00;101451.28;10148744;28;20108;-73
2021/09/27 08:48:39;;;;;;;34.33;28.95;;;;;;;17.55;100.00;101450.16;10144196;28;20097;-72
2021/09/27 08:53:48;;;;;;;35.10;28.38;;;;;;;17.58;100.00;101468.81;10153841;28;20057;-72
2021/09/27 08:59:32;;;;;;;38.10;30.77;;;;;;;17.48;100.00;101463.75;10149869;28;20050;-73
2021/09/27 09:04:42;;;;;;;39.08;30.80;;;;;;;17.51;100.00;101463.06;10144254;28;20052;-71
2021/09/27 09:10:02;;;;;;;38.40;30.25;;;;;;;17.58;100.00;101466.03;10155234;28;20057;-73
2021/09/27 09:15:14;;;;;;;39.13;30.10;;;;;;;17.66;100.00;101456.78;10171226;28;20093;-73
2021/09/27 09:20:31;;;;;;;41.50;30.73;;;;;;;17.74;100.00;101455.88;10130482;28;20056;-74
2021/09/27 09:25:41;;;;;;;41.55;29.67;;;;;;;17.83;100.00;101453.81;10150452;28;20077;-73
2021/09/27 09:31:12;;;;;;;40.08;31.73;;;;;;;17.93;100.00;101452.50;10157257;28;20085;-73
2021/09/27 09:36:19;;;;;;;44.85;32.95;;;;;;;18.05;100.00;101448.91;10164838;28;20042;-73
2021/09/27 09:41:19;;;;;;;37.90;29.35;;;;;;;18.14;100.00;101446.00;10160736;28;20073;-73
2021/09/27 09:46:35;;;;;;;36.53;28.48;;;;;;;18.15;100.00;101440.13;10150127;28;20042;-73
2021/09/27 09:51:41;;;;;;;39.28;28.42;;;;;;;18.21;100.00;101435.91;10144960;28;20050;-73
2021/09/27 09:57:20;;;;;;;36.13;29.60;;;;;;;18.26;100.00;101441.22;10162878;28;20065;-73
2021/09/27 10:02:20;;;;;;;41.08;30.35;;;;;;;18.39;100.00;101430.09;10163804;28;20527;-73
2021/09/27 10:07:24;;;;;;;41.47;29.55;;;;;;;18.40;100.00;101437.22;10162560;28;20116;-73
2021/09/27 10:12:40;;;;;;;34.50;27.70;;;;;;;18.50;100.00;101431.19;10161835;28;20125;-72
2021/09/27 10:17:39;;;;;;;39.33;29.58;;;;;;;18.64;100.00;101420.47;10165522;28;20137;-73
2021/09/27 10:22:55;;;;;;;37.95;29.55;;;;;;;18.81;100.00;101410.25;10151785;28;20060;-73
2021/09/27 10:28:11;;;;;;;43.63;28.33;;;;;;;18.98;100.00;101411.84;10158306;28;20081;-74
2021/09/27 10:33:27;;;;;;;34.83;26.63;;;;;;;19.13;100.00;101413.81;10139766;28;20150;-74
2021/09/27 10:38:45;;;;;;;37.88;29.85;;;;;;;19.11;100.00;101410.59;10155373;28;20053;-73
2021/09/27 10:43:52;;;;;;;33.15;28.15;;;;;;;19.01;99.42;101406.41;10157166;28;20042;-73
2021/09/27 10:48:53;;;;;;;31.60;25.92;;;;;;;19.02;99.03;101396.13;10154639;28;20125;-74
2021/09/27 10:54:07;;;;;;;35.20;27.05;;;;;;;19.13;99.01;101389.66;10160661;28;20077;-74
2021/09/27 10:59:16;;;;;;;31.15;25.77;;;;;;;19.30;98.99;101390.44;10154050;28;20042;-74
2021/09/27 11:04:45;;;;;;;32.88;25.92;;;;;;;19.41;97.87;101391.50;10162169;28;20057;-75
2021/09/27 11:09:52;;;;;;;34.05;24.90;;;;;;;19.57;96.63;101393.41;10148388;28;20073;-73
2021/09/27 11:15:01;;;;;;;34.78;24.70;;;;;;;19.61;95.68;101394.28;10151208;28;20046;-73
2021/09/27 11:20:17;;;;;;;30.20;24.98;;;;;;;19.57;92.98;101376.78;10135890;28;20054;-74
2021/09/27 11:25:23;;;;;;;;;;;;;;;19.69;91.18;101382.22;10155436;28;20124;-74
2021/09/27 11:30:22;;;;;;;26.27;21.00;;;;;;;19.91;92.29;101378.72;10156404;28;19925;-74
2021/09/27 11:35:43;;;;;;;22.60;20.17;;;;;;;20.10;90.56;101369.56;10150288;28;20081;-73
2021/09/27 11:40:42;;;;;;;24.92;19.23;;;;;;;20.33;88.22;101368.78;10157812;28;20045;-74
2021/09/27 11:46:06;;;;;;;23.75;17.98;;;;;;;20.46;86.07;101372.19;10168409;28;20054;-74
2021/09/27 11:51:20;;;;;;;26.65;18.88;;;;;;;20.31;84.36;101360.84;10149279;28;20042;-74
2021/09/27 11:56:37;;;;;;;21.77;18.05;;;;;;;20.31;83.67;101355.28;10147858;28;20088;-73
2021/09/27 12:01:48;;;;;;;21.38;17.83;;;;;;;20.37;83.44;101356.56;10158911;28;20069;-73
2021/09/27 12:07:02;;;;;;;22.00;18.27;;;;;;;20.47;84.56;101354.34;10122126;28;20050;-74
2021/09/27 12:12:00;;;;;;;26.50;20.33;;;;;;;20.51;83.87;101358.78;10147321;28;20050;-75
2021/09/27 12:17:05;;;;;;;20.85;18.63;;;;;;;20.47;82.65;101354.34;10152080;28;20043;-75
2021/09/27 12:22:11;;;;;;;19.60;17.48;;;;;;;20.72;84.67;101346.47;10148073;28;20687;-75
2021/09/27 12:27:28;;;;;;;20.10;16.00;;;;;;;20.97;81.28;101341.31;10145295;28;20042;-73
2021/09/27 12:32:31;;;;;;;23.13;17.25;;;;;;;20.81;81.61;101333.91;10131087;28;20415;-73
2021/09/27 12:37:44;;;;;;;17.50;15.63;;;;;;;20.85;81.05;101327.63;10154226;28;20054;-73
2021/09/27 12:42:48;;;;;;;17.53;15.40;;;;;;;20.78;80.00;101334.69;10154034;28;20575;-75
2021/09/27 12:47:51;;;;;;;17.08;14.60;;;;;;;20.73;79.97;101331.44;10142461;28;20465;-74
2021/09/27 12:52:59;;;;;;;16.13;12.98;;;;;;;20.56;78.87;101333.53;10161419;28;20056;-75
2021/09/27 12:58:12;;;;;;;18.20;14.32;;;;;;;20.46;79.24;101333.31;10160842;28;20048;-74
2021/09/27 13:03:33;;;;;;;14.88;12.50;;;;;;;20.50;80.25;101323.06;10151625;28;20049;-75
2021/09/27 13:09:08;;;;;;;15.65;13.88;;;;;;;20.47;80.18;101319.06;10171839;28;20050;-74
2021/09/27 13:14:18;;;;;;;18.27;13.25;;;;;;;20.45;79.14;101320.63;10141499;28;20050;-74
2021/09/27 13:19:44;;;;;;;21.03;14.37;;;;;;;20.43;81.67;101311.84;10156991;28;20459;-75
2021/09/27 13:24:44;;;;;;;15.52;13.05;;;;;;;20.50;80.17;101318.31;10136527;28;20046;-74
2021/09/27 13:29:52;;;;;;;14.40;12.88;;;;;;;20.39;78.28;101315.34;10152411;28;20057;-74
2021/09/27 13:35:04;;;;;;;16.80;13.30;;;;;;;20.41;80.28;101314.19;10159395;28;20048;-73
2021/09/27 13:40:23;;;;;;;16.35;12.00;;;;;;;20.60;78.98;101319.69;10154259;28;20042;-74
2021/09/27 13:45:37;;;;;;;16.13;12.02;;;;;;;20.78;77.91;101318.00;10164368;28;20082;-74
2021/09/27 13:50:44;;;;;;;15.75;12.05;;;;;;;20.84;76.81;101323.25;10144358;28;20046;-75
2021/09/27 13:55:52;;;;;;;17.15;11.30;;;;;;;20.85;76.28;101322.06;10153592;28;20046;-75
2021/09/27 14:00:52;;;;;;;15.15;11.57;;;;;;;21.17;76.94;101306.66;10157228;28;20042;-70
2021/09/27 14:05:49;;;;;;;12.50;10.23;;;;;;;21.25;75.57;101313.13;10162762;28;20443;-77
2021/09/27 14:10:49;;;;;;;11.05;9.43;;;;;;;21.07;74.18;101318.41;10159242;28;20038;-76
2021/09/27 14:15:53;;;;;;;13.40;10.00;;;;;;;20.91;75.12;101312.22;10152695;28;20046;-75
2021/09/27 14:20:50;;;;;;;11.10;8.80;;;;;;;20.89;74.98;101312.63;10156900;28;20045;-75
2021/09/27 14:25:50;;;;;;;11.07;9.50;;;;;;;20.81;75.79;101306.13;10159534;28;20128;-76
2021/09/27 14:30:57;;;;;;;12.40;9.13;;;;;;;20.76;76.21;101309.22;10152441;28;20041;-73
2021/09/27 14:35:54;;;;;;;13.88;8.60;;;;;;;20.71;76.98;101312.34;10166982;28;20038;-75
2021/09/27 14:40:55;;;;;;;11.75;8.80;;;;;;;20.73;75.54;101315.53;10158356;28;20511;-74
2021/09/27 14:45:53;;;;;;;10.73;8.93;;;;;;;20.72;77.17;101319.47;10172938;28;20165;-75
2021/09/27 14:50:54;;;;;;;12.73;8.95;;;;;;;20.62;76.88;101319.34;10168075;28;20039;-75
2021/09/27 14:55:59;;;;;;;13.32;8.95;;;;;;;20.58;76.06;101316.47;10165510;28;20104;-75
2021/09/27 15:01:02;;;;;;;11.38;7.63;;;;;;;20.54;76.37;101318.38;10143492;28;20425;-74
2021/09/27 15:06:02;;;;;;;11.60;7.93;;;;;;;20.46;76.63;101311.09;10167824;28;20503;-75
2021/09/27 15:11:06;;;;;;;10.68;7.53;;;;;;;20.54;77.06;101318.38;10153484;28;20046;-75
2021/09/27 15:16:05;;;;;;;11.10;8.23;;;;;;;20.50;76.75;101311.97;10165350;28;20100;-74
2021/09/27 15:21:06;;;;;;;10.38;7.97;;;;;;;20.46;76.17;101316.66;10156349;28;20045;-75
2021/09/27 15:26:17;;;;;;;9.30;7.82;;;;;;;20.41;76.73;101333.63;10153512;28;20053;-74
2021/09/27 15:31:35;;;;;;;14.23;8.40;;;;;;;20.25;76.58;101337.31;10166399;28;20571;-74
2021/09/27 15:36:36;;;;;;;12.03;7.73;;;;;;;20.15;76.99;101324.84;10166908;28;20053;-74
2021/09/27 15:41:39;;;;;;;9.73;7.55;;;;;;;20.05;77.94;101335.75;10166879;28;20046;-74
2021/09/27 15:46:42;;;;;;;12.38;7.57;;;;;;;20.04;78.49;101339.69;10171864;28;20050;-74
2021/09/27 15:51:44;;;;;;;10.25;8.02;;;;;;;20.00;78.42;101338.81;10167186;28;20041;-74
2021/09/27 15:56:43;;;;;;;8.90;7.63;;;;;;;19.94;79.50;101353.00;10143111;28;20046;-75
2021/09/27 16:01:42;;;;;;;9.90;7.93;;;;;;;19.91;78.97;101350.97;10149092;28;20050;-76
2021/09/27 16:06:39;;;;;;;11.82;8.55;;;;;;;19.86;79.21;101351.25;10152150;28;20419;-76
2021/09/27 16:11:43;;;;;;;13.20;8.15;;;;;;;19.84;79.42;101353.59;10156426;28;20100;-74
2021/09/27 16:16:49;;;;;;;11.82;7.68;;;;;;;19.77;78.08;101345.13;10140546;28;20038;-74
2021/09/27 16:21:49;;;;;;;10.95;7.60;;;;;;;19.77;79.47;101347.88;10154179;28;20039;-76
2021/09/27 16:26:48;;;;;;;12.40;7.38;;;;;;;19.69;79.35;101346.16;10150614;28;20081;-76
2021/09/27 16:32:03;;;;;;;9.50;7.07;;;;;;;19.63;79.20;101342.03;10153624;28;20046;-76
2021/09/27 16:37:03;;;;;;;9.82;7.03;;;;;;;19.52;79.13;101345.38;10151440;28;20042;-75
2021/09/27 16:42:07;;;;;;;8.43;6.47;;;;;;;19.48;79.54;101352.81;10149687;28;20050;-76
2021/09/27 16:47:12;;;;;;;11.10;7.90;;;;;;;19.40;79.44;101345.53;10136019;28;20042;-76
2021/09/27 16:52:10;;;;;;;9.35;7.00;;;;;;;19.36;79.60;101346.63;10158259;28;20507;-76
2021/09/27 16:57:08;;;;;;;14.55;8.02;;;;;;;19.31;79.76;101348.50;10161070;28;20042;-74
2021/09/27 17:02:05;;;;;;;11.50;7.78;;;;;;;19.27;80.02;101352.34;10157246;28;20042;-75
2021/09/27 17:07:09;;;;;;;10.63;7.53;;;;;;;19.25;81.05;101349.13;10140652;28;20046;-75
2021/09/27 17:12:10;;;;;;;11.48;7.05;;;;;;;19.18;81.09;101349.78;10136186;28;20406;-75
2021/09/27 17:22:51;;;;;;;14.32;7.72;;;;;;;19.11;82.07;101360.69;10138455;28;20460;-73
2021/09/27 17:27:50;;;;;;;11.15;7.90;;;;;;;19.09;82.41;101363.81;10129466;28;20531;-74
2021/09/27 17:32:51;;;;;;;11.80;8.13;;;;;;;19.04;82.74;101366.88;10154748;28;20507;-72
2021/09/27 17:37:57;;;;;;;10.77;8.32;;;;;;;19.01;82.43;101362.06;10144967;28;20042;-74
2021/09/27 17:43:08;;;;;;;13.02;8.70;;;;;;;18.97;82.57;101363.94;10096264;28;20319;-73
2021/09/27 17:48:14;;;;;;;9.13;7.95;;;;;;;18.94;82.70;101367.44;10139535;28;20742;-74
2021/09/27 17:53:27;;;;;;;10.73;8.57;;;;;;;18.88;82.28;101360.56;10126356;28;20508;-73
2021/09/27 17:58:25;;;;;;;11.00;8.93;;;;;;;18.86;83.09;101371.19;10109668;28;20066;-73
2021/09/27 18:03:21;;;;;;;11.52;7.70;;;;;;;18.82;83.29;101375.81;10116478;28;20502;-72
2021/09/27 18:08:18;;;;;;;12.85;7.60;;;;;;;18.81;83.48;101374.22;10147304;28;20100;-73
2021/09/27 18:13:16;;;;;;;11.15;8.43;;;;;;;18.76;83.72;101361.44;10153922;28;20050;-72
2021/09/27 18:18:13;;;;;;;11.75;8.20;;;;;;;18.76;83.96;101371.72;10167529;28;20041;-73
2021/09/27 18:23:09;;;;;;;10.57;8.05;;;;;;;18.70;83.84;101369.22;10165829;28;20507;-72
2021/09/27 18:28:08;;;;;;;10.82;7.22;;;;;;;18.68;83.78;101382.63;10146498;28;20413;-72
2021/09/27 18:33:07;;;;;;;12.27;7.80;;;;;;;18.64;83.31;101387.25;10157279;28;20037;-72
2021/09/27 18:38:06;;;;;;;12.50;8.13;;;;;;;18.60;83.56;101389.13;10161027;28;20499;-72
2021/09/27 18:43:03;;;;;;;13.13;8.20;;;;;;;18.59;83.85;101390.28;10151798;28;20073;-72
2021/09/27 18:48:05;;;;;;;14.95;8.38;;;;;;;18.57;83.65;101403.69;10146664;28;20517;-72
2021/09/27 18:53:02;;;;;;;13.65;8.93;;;;;;;18.53;83.88;101413.84;10149692;28;20046;-72
2021/09/27 18:57:58;;;;;;;11.10;8.10;;;;;;;18.54;84.44;101426.53;10144157;28;20046;-71
2021/09/27 19:02:55;;;;;;;10.55;9.20;;;;;;;18.50;84.98;101431.19;10141065;28;20105;-72
2021/09/27 19:07:52;;;;;;;14.65;9.98;;;;;;;18.48;85.45;101439.03;10158861;28;20441;-72
2021/09/27 19:12:50;;;;;;;11.85;9.75;;;;;;;18.41;86.08;101433.31;10157803;28;20042;-72
2021/09/27 19:17:47;;;;;;;13.82;10.15;;;;;;;18.38;86.85;101436.78;10164024;28;20053;-71
2021/09/27 19:22:44;;;;;;;15.07;9.55;;;;;;;18.28;87.46;101444.44;10159355;28;20077;-72
2021/09/27 19:27:41;;;;;;;13.82;10.93;;;;;;;18.23;88.23;101444.69;10155466;28;20096;-71
2021/09/27 19:32:38;;;;;;;15.85;10.88;;;;;;;18.15;89.37;101448.41;10137699;28;20046;-72
2021/09/27 19:37:35;;;;;;;16.98;11.95;;;;;;;18.14;89.71;101457.88;10155609;28;20101;-72
2021/09/27 19:42:32;;;;;;;13.35;11.60;;;;;;;18.08;90.07;101460.09;10143455;28;20081;-72
2021/09/27 19:47:28;;;;;;;17.38;12.73;;;;;;;18.05;91.10;101465.50;10138721;28;20050;-72
2021/09/27 19:52:24;;;;;;;17.00;12.77;;;;;;;18.01;91.14;101476.47;10151245;28;20081;-72
2021/09/27 19:57:21;;;;;;;15.60;11.85;;;;;;;18.00;91.38;101480.38;10143701;28;20539;-71
2021/09/27 20:02:17;;;;;;;16.15;13.20;;;;;;;17.96;91.72;101484.19;10149176;28;20100;-71
2021/09/27 20:07:14;;;;;;;16.20;12.82;;;;;;;17.94;92.23;101489.28;10151636;28;20050;-71
2021/09/27 20:12:12;;;;;;;17.85;12.82;;;;;;;17.92;92.62;101489.66;10152021;28;20112;-73
2021/09/27 20:17:19;;;;;;;16.42;12.82;;;;;;;17.86;92.92;101497.38;10170205;28;20057;-71
2021/09/27 20:22:15;;;;;;;17.13;12.02;;;;;;;17.86;92.78;101491.84;10153231;28;20145;-67
2021/09/27 20:27:12;;;;;;;15.70;11.15;;;;;;;17.88;92.65;101494.25;10156156;28;20050;-67
2021/09/27 20:32:08;;;;;;;15.18;11.93;;;;;;;17.85;93.56;101501.28;10172384;28;20501;-68
2021/09/27 20:37:05;;;;;;;16.17;11.10;;;;;;;17.81;93.18;101505.09;10156120;28;20125;-67
2021/09/27 20:42:01;;;;;;;13.50;9.50;;;;;;;17.81;92.21;101510.63;10153922;28;20073;-67
2021/09/27 20:46:58;;;;;;;9.52;7.03;;;;;;;17.79;90.32;101522.00;10146389;28;20076;-68
2021/09/27 20:51:55;;;;;;;11.50;7.35;;;;;;;17.78;88.33;101520.41;10142052;28;20042;-68
2021/09/27 20:56:51;;;;;;;10.45;6.45;;;;;;;17.71;87.37;101520.19;10143783;28;20042;-68
2021/09/27 21:01:48;;;;;;;11.00;6.07;;;;;;;17.67;87.75;101531.13;10148975;28;20124;-67
2021/09/27 21:06:44;;;;;;;10.30;6.07;;;;;;;17.67;87.99;101550.47;10161981;28;20100;-67
2021/09/27 21:11:42;;;;;;;6.85;3.25;;;;;;;17.41;84.75;101561.88;10180724;28;20099;-67
2021/09/27 21:16:39;;;;;;;6.93;2.78;;;;;;;17.14;84.19;101587.41;10167011;28;20441;-67
2021/09/27 21:21:36;;;;;;;5.82;1.98;;;;;;;16.82;84.36;101614.66;10169206;28;20388;-67
2021/09/27 21:26:32;;;;;;;4.18;1.20;;;;;;;16.52;85.16;101611.94;10151841;28;20074;-67
2021/09/27 21:31:29;;;;;;;8.30;1.85;;;;;;;16.34;85.66;101627.03;10172049;28;20046;-67
2021/09/27 21:36:26;;;;;;;8.00;1.25;;;;;;;16.24;85.38;101638.47;10174670;28;20046;-67
2021/09/27 21:41:22;;;;;;;4.50;1.20;;;;;;;15.99;87.33;101643.81;10175077;28;20049;-67
2021/09/27 21:46:19;;;;;;;4.68;1.20;;;;;;;16.00;86.68;101661.97;10168614;28;20042;-67
2021/09/27 21:51:17;;;;;;;7.57;1.48;;;;;;;16.06;86.44;101665.31;10173719;28;20042;-67
2021/09/27 21:56:13;;;;;;;4.15;1.00;;;;;;;16.00;86.32;101681.25;10164154;28;20500;-67
2021/09/27 22:01:10;;;;;;;4.75;1.20;;;;;;;15.90;85.43;101689.91;10160767;28;20089;-68
2021/09/27 22:06:07;;;;;;;4.05;0.88;;;;;;;15.86;85.30;101698.03;10169870;28;20052;-69
2021/09/27 22:11:05;;;;;;;6.07;1.05;;;;;;;15.78;85.00;101691.41;10177369;28;20455;-68
2021/09/27 22:16:02;;;;;;;6.70;1.45;;;;;;;15.67;84.67;101695.63;10162714;28;20069;-68
2021/09/27 22:20:59;;;;;;;5.72;1.13;;;;;;;15.70;85.02;101689.47;10169949;28;20600;-68
2021/09/27 22:25:56;;;;;;;5.38;1.05;;;;;;;15.51;84.55;101702.81;10167075;28;20125;-67
2021/09/27 22:30:52;;;;;;;6.90;1.25;;;;;;;15.51;84.39;101722.09;10174673;28;20046;-67
2021/09/27 22:35:49;;;;;;;4.78;0.98;;;;;;;15.47;84.04;101732.16;10170739;28;20038;-67
2021/09/27 22:40:45;;;;;;;5.03;1.42;;;;;;;15.44;84.28;101699.75;10176537;28;20050;-68
2021/09/27 22:45:42;;;;;;;7.28;1.70;;;;;;;15.50;85.48;101710.28;10175812;28;20160;-68
2021/09/27 22:50:38;;;;;;;6.03;1.40;;;;;;;15.43;85.73;101704.41;10167332;28;20049;-68
2021/09/27 22:55:35;;;;;;;9.63;1.40;;;;;;;15.44;87.06;101705.25;10167074;28;20051;-68
2021/09/27 23:00:31;;;;;;;6.97;1.42;;;;;;;15.50;87.66;101725.97;10168297;28;20042;-68
2021/09/27 23:05:29;;;;;;;10.88;1.35;;;;;;;15.46;87.14;101736.06;10168856;28;20415;-69